KPTW/PTW METAR and TAF weather

Enter ICAO airport designator
Station Type Date Time Source
KPTW METAR 2018/12/17 17:54 UTC NOAA

KPTW 171754Z AUTO 30013G22KT 7SM OVC044 06/M01 A2978 RMK AO2 SLP083 T00611006 10072 20017 58012


Station Type Date Time Source
KPTW Decoded METAR 2018/12/17 17:54 UTC NOAA

POTTSTOWN LIMERICK AIRPORT, PA, United States (KPTW) 40-14N 075-33W 89M
Dec 17, 2018 - 12:54 PM EST / 2018.12.17 1754 UTC
Wind: from the WNW (300 degrees) at 15 MPH (13 KT) gusting to 25 MPH (22 KT):0
Visibility: 7 mile(s):0
Sky conditions: overcast
Temperature: 43.0 F (6.1 C)
Dew Point: 30.9 F (-0.6 C)
Relative Humidity: 62%
Pressure (altimeter): 29.78 in. Hg (1008 hPa)
Pressure tendency: 0.04 inches (1.2 hPa) lower than three hours ago
ob: KPTW 171754Z AUTO 30013G22KT 7SM OVC044 06/M01 A2978 RMK AO2 SLP083 T00611006 10072 20017 58012
cycle: 18

Station Type Date Time Source
KPTW TAF UTC NOAA

Error!


Example: see airport list